createdAt,value
2022-11-12T00:01:12.281Z,3.66
2022-11-12T00:03:40.263Z,3.87
2022-11-12T00:06:09.774Z,4.16
2022-11-12T00:08:38.142Z,3.71
2022-11-12T00:11:07.373Z,3.47
2022-11-12T00:13:35.371Z,3.83
2022-11-12T00:16:03.416Z,3.67
2022-11-12T00:18:31.367Z,3.61
2022-11-12T00:20:59.402Z,3.83
2022-11-12T00:23:28.773Z,4.11
2022-11-12T00:26:01.230Z,3.97
2022-11-12T00:28:33.417Z,4.20
2022-11-12T00:31:09.667Z,4.16
2022-11-12T00:33:41.712Z,4.12
2022-11-12T00:36:10.198Z,4.03
2022-11-12T00:38:39.582Z,4.19
2022-11-12T00:41:07.843Z,4.22
2022-11-12T00:43:35.834Z,4.15
2022-11-12T00:46:04.123Z,4.17
2022-11-12T00:48:32.154Z,4.22
2022-11-12T00:51:04.779Z,4.27
2022-11-12T00:53:33.612Z,4.19
2022-11-12T00:56:04.647Z,4.16
2022-11-12T00:58:33.323Z,4.19
2022-11-12T01:01:08.715Z,4.11
2022-11-12T01:03:37.008Z,4.02
2022-11-12T01:06:06.608Z,4.19
2022-11-12T01:08:35.434Z,4.29
2022-11-12T01:11:09.928Z,4.36
2022-11-12T01:13:43.817Z,4.42
2022-11-12T01:16:14.960Z,4.48
2022-11-12T01:18:43.937Z,4.41
2022-11-12T01:21:12.220Z,4.34
2022-11-12T01:23:41.939Z,4.41
2022-11-12T01:26:13.214Z,4.07
2022-11-12T01:28:42.175Z,4.49
2022-11-12T01:31:15.844Z,4.46
2022-11-12T01:33:44.980Z,4.54
2022-11-12T01:36:14.252Z,4.43
2022-11-12T01:38:43.949Z,4.60
2022-11-12T01:41:15.518Z,4.58
2022-11-12T01:43:43.667Z,4.60
2022-11-12T01:46:19.829Z,4.53
2022-11-12T01:48:53.362Z,4.56
2022-11-12T01:51:22.825Z,4.58
2022-11-12T01:53:54.981Z,4.57
2022-11-12T01:56:27.189Z,4.52
2022-11-12T01:59:02.846Z,4.62
2022-11-12T02:01:31.832Z,4.66
2022-11-12T02:04:00.198Z,4.69
2022-11-12T02:06:28.234Z,4.76
2022-11-12T02:08:56.845Z,4.78
2022-11-12T02:11:26.248Z,4.73
2022-11-12T02:14:01.435Z,4.85
2022-11-12T02:16:34.119Z,4.77
2022-11-12T02:19:03.680Z,4.75
2022-11-12T02:21:33.300Z,4.76
2022-11-12T02:24:03.391Z,4.74
2022-11-12T02:26:34.464Z,4.75
2022-11-12T02:29:03.208Z,4.71
2022-11-12T02:31:31.495Z,4.73
2022-11-12T02:33:59.518Z,4.75
2022-11-12T02:36:28.239Z,4.76
2022-11-12T02:38:58.094Z,4.58
2022-11-12T02:41:26.272Z,4.72
2022-11-12T02:43:54.362Z,4.73
2022-11-12T02:46:22.848Z,4.75
2022-11-12T02:48:50.857Z,4.84
2022-11-12T02:51:18.835Z,4.86
2022-11-12T02:53:46.828Z,4.78
2022-11-12T02:56:17.317Z,4.93
2022-11-12T02:58:45.314Z,4.91
2022-11-12T03:01:13.345Z,4.91
2022-11-12T03:03:41.344Z,4.80
2022-11-12T03:06:09.606Z,4.94
2022-11-12T03:08:37.604Z,4.92
2022-11-12T03:11:10.526Z,4.78
2022-11-12T03:13:40.375Z,4.77
2022-11-12T03:16:08.622Z,4.75
2022-11-12T03:18:37.408Z,4.76
2022-11-12T03:21:05.920Z,4.84
2022-11-12T03:23:33.967Z,4.81
2022-11-12T03:26:04.203Z,4.82
2022-11-12T03:28:32.661Z,4.79
2022-11-12T03:31:02.590Z,4.94
2022-11-12T03:33:30.575Z,4.90
2022-11-12T03:35:58.658Z,4.97
2022-11-12T03:38:27.025Z,4.89
2022-11-12T03:40:55.295Z,4.94
2022-11-12T03:43:23.266Z,4.84
2022-11-12T03:45:51.366Z,4.84
2022-11-12T03:48:20.801Z,4.99
2022-11-12T03:50:48.844Z,4.98
2022-11-12T03:53:17.214Z,5.02
2022-11-12T03:55:46.122Z,5.03
2022-11-12T03:58:14.090Z,5.17
2022-11-12T04:00:42.107Z,5.19
2022-11-12T04:03:10.126Z,5.07
2022-11-12T04:05:57.256Z,5.12
2022-11-12T04:08:38.190Z,5.04
2022-11-12T04:11:08.559Z,5.07
2022-11-12T04:13:38.433Z,5.12
2022-11-12T04:16:26.021Z,5.00
2022-11-12T04:19:13.257Z,5.11
2022-11-12T04:21:54.962Z,5.03
2022-11-12T04:24:43.782Z,5.07
2022-11-12T04:27:14.384Z,4.92
2022-11-12T04:30:00.325Z,5.00
2022-11-12T04:32:29.011Z,5.03
2022-11-12T04:34:57.966Z,4.95
2022-11-12T04:37:29.353Z,5.01
2022-11-12T04:40:18.085Z,5.13
2022-11-12T04:43:17.892Z,4.99
2022-11-12T04:45:47.708Z,5.20
2022-11-12T04:48:15.704Z,5.17
2022-11-12T04:50:44.634Z,5.10
2022-11-12T04:53:14.373Z,4.99
2022-11-12T04:55:42.459Z,4.99
2022-11-12T04:58:10.559Z,5.10
2022-11-12T05:00:38.596Z,5.11
2022-11-12T05:03:06.603Z,5.01
2022-11-12T05:05:34.693Z,5.10
2022-11-12T05:08:03.299Z,5.14
2022-11-12T05:10:32.917Z,5.02
2022-11-12T05:13:00.907Z,5.02
2022-11-12T05:15:28.914Z,4.95
2022-11-12T05:17:56.932Z,4.94
2022-11-12T05:20:24.933Z,4.76
2022-11-12T05:23:05.552Z,4.63
2022-11-12T05:25:36.244Z,4.51
2022-11-12T05:28:06.678Z,4.86
2022-11-12T05:30:35.315Z,4.67
2022-11-12T05:33:03.304Z,4.89
2022-11-12T05:35:31.306Z,4.86
2022-11-12T05:37:59.290Z,4.86
2022-11-12T05:40:27.309Z,4.51
2022-11-12T05:42:56.798Z,4.63
2022-11-12T05:45:24.784Z,4.66
2022-11-12T05:47:52.783Z,4.61
2022-11-12T05:50:20.820Z,4.76
2022-11-12T05:52:48.840Z,4.54
2022-11-12T05:55:16.997Z,4.41
2022-11-12T05:57:44.983Z,4.34
2022-11-12T06:00:15.483Z,4.39
2022-11-12T06:02:43.544Z,4.46
2022-11-12T06:05:11.724Z,4.49
2022-11-12T06:07:39.856Z,4.44
2022-11-12T06:10:09.007Z,4.25
2022-11-12T06:12:37.013Z,4.29
2022-11-12T06:15:05.524Z,4.30
2022-11-12T06:17:34.923Z,4.29
2022-11-12T06:20:03.041Z,4.28
2022-11-12T06:22:31.107Z,4.46
2022-11-12T06:24:59.158Z,4.29
2022-11-12T06:27:27.552Z,4.23
2022-11-12T06:29:55.567Z,4.16
2022-11-12T06:32:23.563Z,4.24
2022-11-12T06:34:53.795Z,4.18
2022-11-12T06:37:22.154Z,4.10
2022-11-12T06:39:50.705Z,4.28
2022-11-12T06:42:19.016Z,4.08
2022-11-12T06:44:47.113Z,4.07
2022-11-12T06:47:15.916Z,4.15
2022-11-12T06:49:43.929Z,3.85
2022-11-12T06:52:16.582Z,3.88
2022-11-12T06:54:45.090Z,4.06
2022-11-12T06:57:13.236Z,4.06
2022-11-12T06:59:41.329Z,3.90
2022-11-12T07:02:09.357Z,3.96
2022-11-12T07:04:37.381Z,4.09
2022-11-12T07:07:09.443Z,4.09
2022-11-12T07:09:40.254Z,4.12
2022-11-12T07:12:08.740Z,4.13
2022-11-12T07:14:36.801Z,4.07
2022-11-12T07:17:04.766Z,4.19
2022-11-12T07:19:32.814Z,4.21
2022-11-12T07:22:00.780Z,4.31
2022-11-12T07:24:31.620Z,4.37
2022-11-12T07:27:01.018Z,4.46
2022-11-12T07:29:46.203Z,4.54
2022-11-12T07:32:15.640Z,4.62
2022-11-12T07:34:43.620Z,4.68
2022-11-12T07:37:11.603Z,4.68
2022-11-12T07:39:39.699Z,4.75
2022-11-12T07:42:09.189Z,4.71
2022-11-12T07:44:37.235Z,4.54
2022-11-12T07:47:05.328Z,4.75
2022-11-12T07:49:33.488Z,4.78
2022-11-12T07:52:01.534Z,4.75
2022-11-12T07:54:29.533Z,4.82
2022-11-12T07:56:57.562Z,4.87
2022-11-12T07:59:27.019Z,4.95
2022-11-12T08:01:55.069Z,4.90
2022-11-12T08:04:23.108Z,4.97
2022-11-12T08:06:51.215Z,5.00
2022-11-12T08:09:19.330Z,5.03
2022-11-12T08:11:47.323Z,5.05
2022-11-12T08:14:15.628Z,4.87
2022-11-12T08:16:46.703Z,5.01
2022-11-12T08:19:14.689Z,4.96
2022-11-12T08:21:42.833Z,4.92
2022-11-12T08:24:11.013Z,4.95
2022-11-12T08:26:38.995Z,4.94
2022-11-12T08:29:08.567Z,4.91
2022-11-12T08:31:37.041Z,4.86
2022-11-12T08:34:15.189Z,4.92
2022-11-12T08:36:46.640Z,5.03
2022-11-12T08:39:14.682Z,5.16
2022-11-12T08:41:42.814Z,4.88
2022-11-12T08:44:10.832Z,5.08
2022-11-12T08:46:38.829Z,5.13
2022-11-12T08:49:08.241Z,5.29
2022-11-12T08:51:36.197Z,5.25
2022-11-12T08:54:04.223Z,5.32
2022-11-12T08:56:32.160Z,5.46
2022-11-12T08:59:03.748Z,5.36
2022-11-12T09:01:34.335Z,5.49
2022-11-12T09:04:02.403Z,5.55
2022-11-12T09:06:31.917Z,5.62
2022-11-12T09:08:59.988Z,5.55
2022-11-12T09:11:28.125Z,5.64
2022-11-12T09:13:56.297Z,5.58
2022-11-12T09:16:24.685Z,5.48
2022-11-12T09:18:52.746Z,5.60
2022-11-12T09:21:24.761Z,5.64
2022-11-12T09:23:54.278Z,5.59
2022-11-12T09:26:22.434Z,5.73
2022-11-12T09:28:52.453Z,5.71
2022-11-12T09:31:20.500Z,5.89
2022-11-12T09:33:48.677Z,5.86
2022-11-12T09:36:17.751Z,5.96
2022-11-12T09:38:45.720Z,5.93
2022-11-12T09:41:26.493Z,5.90
2022-11-12T09:43:57.470Z,5.99
2022-11-12T09:46:32.677Z,5.75
2022-11-12T09:49:07.681Z,5.90
2022-11-12T09:51:39.143Z,5.94
2022-11-12T09:54:17.642Z,5.97
2022-11-12T09:56:48.749Z,5.79
2022-11-12T09:59:17.905Z,5.85
2022-11-12T10:01:56.667Z,5.69
2022-11-12T10:04:42.260Z,5.82
2022-11-12T10:07:18.759Z,5.97
2022-11-12T10:09:58.445Z,6.13
2022-11-12T10:12:40.045Z,6.20
2022-11-12T10:15:45.636Z,6.31
2022-11-12T10:18:18.500Z,6.18
2022-11-12T10:20:54.310Z,6.11
2022-11-12T10:23:30.309Z,6.13
2022-11-12T10:26:00.984Z,6.15
2022-11-12T10:28:38.532Z,6.25
2022-11-12T10:31:14.222Z,6.29
2022-11-12T10:33:44.145Z,6.26
2022-11-12T10:36:32.141Z,6.27
2022-11-12T10:39:01.759Z,6.27
2022-11-12T10:41:37.380Z,6.31
2022-11-12T10:44:14.894Z,6.12
2022-11-12T10:46:43.040Z,6.17
2022-11-12T10:49:25.656Z,6.19
2022-11-12T10:51:57.846Z,6.25
2022-11-12T10:54:31.814Z,6.44
2022-11-12T10:57:20.775Z,6.41
2022-11-12T11:00:08.044Z,6.20
2022-11-12T11:02:36.315Z,6.53
2022-11-12T11:05:29.121Z,6.55
2022-11-12T11:08:03.538Z,6.54
2022-11-12T11:10:33.837Z,6.36
2022-11-12T11:13:19.325Z,6.46
2022-11-12T11:16:01.280Z,6.45
2022-11-12T11:18:30.531Z,6.29
2022-11-12T11:21:07.583Z,6.50
2022-11-12T11:23:42.962Z,6.43
2022-11-12T11:26:32.439Z,6.46
2022-11-12T11:29:18.121Z,6.43
2022-11-12T11:31:56.811Z,6.48
2022-11-12T11:34:39.439Z,6.61
2022-11-12T11:37:28.612Z,6.81
2022-11-12T11:40:06.810Z,6.59
2022-11-12T11:42:57.167Z,6.64
2022-11-12T11:45:33.210Z,6.83
2022-11-12T11:48:13.556Z,6.70
2022-11-12T11:50:47.069Z,6.93
2022-11-12T11:53:24.785Z,6.89
2022-11-12T11:56:02.428Z,6.98
2022-11-12T11:59:01.864Z,6.90
2022-11-12T12:01:38.563Z,6.57
2022-11-12T12:04:36.275Z,6.51
2022-11-12T12:07:18.582Z,6.50
2022-11-12T12:09:55.541Z,6.48
2022-11-12T12:12:37.225Z,6.43
2022-11-12T12:15:27.181Z,6.65
2022-11-12T12:18:04.112Z,6.80
2022-11-12T12:20:42.434Z,6.82
2022-11-12T12:23:17.085Z,6.67
2022-11-12T12:25:48.357Z,6.93
2022-11-12T12:28:30.592Z,6.57
2022-11-12T12:31:04.078Z,6.58
2022-11-12T12:33:40.972Z,6.53
2022-11-12T12:36:13.828Z,6.35
2022-11-12T12:38:46.647Z,6.25
2022-11-12T12:41:27.837Z,6.65
2022-11-12T12:43:59.769Z,6.78
2022-11-12T12:46:30.360Z,6.77
2022-11-12T12:49:01.787Z,6.72
2022-11-12T12:51:34.208Z,6.60
2022-11-12T12:54:02.274Z,6.79
2022-11-12T12:56:50.160Z,6.71
2022-11-12T12:59:21.539Z,6.89
2022-11-12T13:01:57.571Z,6.36
2022-11-12T13:04:54.732Z,6.55
2022-11-12T13:07:41.835Z,6.85
2022-11-12T13:10:42.501Z,6.80
2022-11-12T13:13:31.937Z,6.84
2022-11-12T13:16:02.054Z,6.87
2022-11-12T13:18:59.518Z,6.97
2022-11-12T13:21:27.964Z,6.93
2022-11-12T13:24:12.066Z,6.85
2022-11-12T13:26:47.443Z,6.91
2022-11-12T13:29:46.341Z,6.81
2022-11-12T13:32:33.952Z,6.94
2022-11-12T13:35:40.686Z,6.92
2022-11-12T13:38:15.881Z,6.71
2022-11-12T13:40:48.175Z,6.73
2022-11-12T13:43:37.665Z,6.80
2022-11-12T13:46:25.390Z,6.91
2022-11-12T13:49:00.100Z,6.77
2022-11-12T13:51:40.226Z,6.83
2022-11-12T13:54:32.973Z,6.66
2022-11-12T13:57:29.191Z,6.48
2022-11-12T14:00:20.771Z,6.73
2022-11-12T14:02:53.058Z,6.73
2022-11-12T14:05:24.491Z,6.69
2022-11-12T14:08:09.264Z,6.72
2022-11-12T14:10:46.500Z,6.79
2022-11-12T14:13:41.222Z,6.81
2022-11-12T14:16:29.645Z,6.83
2022-11-12T14:19:20.238Z,6.54
2022-11-12T14:22:01.073Z,6.48
2022-11-12T14:24:29.398Z,6.68
2022-11-12T14:26:57.479Z,6.62
2022-11-12T14:29:31.438Z,6.61
2022-11-12T14:32:03.982Z,6.63
2022-11-12T14:34:34.876Z,6.72
2022-11-12T14:37:03.367Z,6.79
2022-11-12T14:39:32.091Z,6.43
2022-11-12T14:42:01.217Z,6.69
2022-11-12T14:44:36.024Z,6.77
2022-11-12T14:47:09.205Z,6.56
2022-11-12T14:49:44.531Z,6.52
2022-11-12T14:52:19.938Z,6.47
2022-11-12T14:54:50.608Z,6.45
2022-11-12T14:57:23.012Z,6.62
2022-11-12T14:59:54.751Z,6.67
2022-11-12T15:02:42.312Z,6.71
2022-11-12T15:05:19.078Z,6.81
2022-11-12T15:07:55.076Z,6.69
2022-11-12T15:10:31.824Z,6.64
2022-11-12T15:13:09.043Z,6.51
2022-11-12T15:15:41.708Z,6.62
2022-11-12T15:18:18.713Z,6.62
2022-11-12T15:20:46.903Z,6.53
2022-11-12T15:23:20.086Z,6.46
2022-11-12T15:25:58.866Z,6.47
2022-11-12T15:28:30.628Z,6.42
2022-11-12T15:31:07.565Z,6.23
2022-11-12T15:33:35.831Z,6.32
2022-11-12T15:36:04.309Z,6.45
2022-11-12T15:38:37.944Z,6.58
2022-11-12T15:41:06.866Z,6.47
2022-11-12T15:43:42.507Z,6.41
2022-11-12T15:46:16.302Z,6.45
2022-11-12T15:48:44.143Z,6.55
2022-11-12T15:51:12.797Z,6.41
2022-11-12T15:53:40.796Z,6.25
2022-11-12T15:56:15.590Z,6.15
2022-11-12T15:58:43.698Z,6.18
2022-11-12T16:01:14.091Z,6.17
2022-11-12T16:03:42.137Z,6.15
2022-11-12T16:06:12.310Z,6.28
2022-11-12T16:08:40.276Z,6.14
2022-11-12T16:11:30.085Z,6.34
2022-11-12T16:13:58.467Z,6.16
2022-11-12T16:16:28.002Z,6.09
2022-11-12T16:18:56.032Z,6.14
2022-11-12T16:21:24.068Z,6.13
2022-11-12T16:23:52.221Z,6.21
2022-11-12T16:26:27.274Z,6.22
2022-11-12T16:28:55.513Z,6.39
2022-11-12T16:31:23.570Z,6.32
2022-11-12T16:33:53.185Z,6.27
2022-11-12T16:36:21.467Z,6.31
2022-11-12T16:38:49.540Z,6.20
2022-11-12T16:41:17.497Z,6.26
2022-11-12T16:43:45.540Z,6.28
2022-11-12T16:46:26.108Z,6.31
2022-11-12T16:48:55.777Z,6.15
2022-11-12T16:51:24.436Z,6.11
2022-11-12T16:53:52.657Z,6.02
2022-11-12T16:56:22.760Z,6.16
2022-11-12T16:58:52.226Z,6.16
2022-11-12T17:01:26.268Z,6.16
2022-11-12T17:03:57.462Z,6.22
2022-11-12T17:06:33.897Z,6.32
2022-11-12T17:09:02.104Z,6.26
2022-11-12T17:11:30.179Z,6.39
2022-11-12T17:13:58.182Z,6.48
2022-11-12T17:16:26.236Z,6.24
2022-11-12T17:18:56.393Z,6.22
2022-11-12T17:21:24.781Z,6.16
2022-11-12T17:23:52.925Z,6.29
2022-11-12T17:26:23.526Z,6.31
2022-11-12T17:28:59.211Z,6.25
2022-11-12T17:31:29.221Z,6.12
2022-11-12T17:33:58.614Z,6.27
2022-11-12T17:36:28.265Z,6.31
2022-11-12T17:38:57.226Z,6.36
2022-11-12T17:41:26.389Z,6.25
2022-11-12T17:43:55.657Z,6.17
2022-11-12T17:46:23.705Z,6.03
2022-11-12T17:48:52.401Z,6.28
2022-11-12T17:51:23.497Z,6.32
2022-11-12T17:53:51.767Z,6.03
2022-11-12T17:56:25.202Z,6.06
2022-11-12T17:58:54.207Z,6.20
2022-11-12T18:01:26.025Z,6.22
2022-11-12T18:03:59.178Z,6.10
2022-11-12T18:08:08.999Z,5.93
2022-11-12T18:09:36.741Z,5.85
2022-11-12T18:12:07.681Z,6.25
2022-11-12T18:14:36.013Z,5.87
2022-11-12T18:17:04.029Z,5.94
2022-11-12T18:19:32.173Z,6.09
2022-11-12T18:22:02.559Z,5.99
2022-11-12T18:24:31.537Z,5.74
2022-11-12T18:26:59.714Z,5.84
2022-11-12T18:29:30.560Z,5.89
2022-11-12T18:31:58.761Z,5.58
2022-11-12T18:34:26.974Z,5.76
2022-11-12T18:36:55.487Z,5.72
2022-11-12T18:39:26.613Z,5.66
2022-11-12T18:41:56.367Z,5.75
2022-11-12T18:44:26.369Z,5.76
2022-11-12T18:47:04.146Z,5.53
2022-11-12T18:49:34.041Z,5.60
2022-11-12T18:52:02.895Z,5.73
2022-11-12T18:54:34.153Z,5.71
2022-11-12T18:57:03.022Z,6.03
2022-11-12T18:59:32.581Z,5.76
2022-11-12T19:02:00.815Z,5.64
2022-11-12T19:04:29.254Z,6.03
2022-11-12T19:06:57.597Z,6.07
2022-11-12T19:09:25.814Z,6.19
2022-11-12T19:11:55.182Z,6.19
2022-11-12T19:14:24.743Z,5.97
2022-11-12T19:16:53.004Z,6.06
2022-11-12T19:19:21.106Z,5.89
2022-11-12T19:21:49.536Z,5.82
2022-11-12T19:24:17.745Z,5.96
2022-11-12T19:26:45.732Z,6.05
2022-11-12T19:29:16.171Z,5.98
2022-11-12T19:31:44.131Z,5.82
2022-11-12T19:34:12.281Z,5.71
2022-11-12T19:36:41.269Z,5.81
2022-11-12T19:39:09.955Z,5.74
2022-11-12T19:41:39.707Z,5.84
2022-11-12T19:44:07.949Z,5.76
2022-11-12T19:46:38.972Z,5.70
2022-11-12T19:49:07.216Z,5.88
2022-11-12T19:55:03.494Z,5.64
2022-11-12T19:57:32.267Z,5.82
2022-11-12T20:00:02.189Z,5.81
2022-11-12T20:02:33.824Z,5.87
2022-11-12T20:05:03.343Z,5.89
2022-11-12T20:07:36.673Z,5.94
2022-11-12T20:10:05.187Z,5.74
2022-11-12T20:12:34.943Z,5.84
2022-11-12T20:15:07.731Z,5.60
2022-11-12T20:17:39.561Z,5.64
2022-11-12T20:20:10.372Z,5.62
2022-11-12T20:22:39.613Z,5.54
2022-11-12T20:25:10.537Z,5.44
2022-11-12T20:27:42.177Z,5.43
2022-11-12T20:30:13.524Z,5.63
2022-11-12T20:32:43.099Z,5.55
2022-11-12T20:35:17.777Z,5.66
2022-11-12T20:37:50.184Z,5.71
2022-11-12T20:40:19.160Z,5.78
2022-11-12T20:42:49.916Z,5.67
2022-11-12T20:45:19.261Z,5.63
2022-11-12T20:47:48.668Z,5.56
2022-11-12T20:50:16.870Z,5.64
2022-11-12T20:52:49.769Z,5.65
2022-11-12T20:55:18.853Z,5.61
2022-11-12T20:57:48.086Z,5.24
2022-11-12T21:00:25.196Z,5.62
2022-11-12T21:02:58.710Z,5.53
2022-11-12T21:05:28.570Z,5.58
2022-11-12T21:07:57.541Z,5.74
2022-11-12T21:10:25.843Z,5.84
2022-11-12T21:12:53.921Z,5.75
2022-11-12T21:15:22.248Z,5.74
2022-11-12T21:17:53.859Z,5.60
2022-11-12T21:20:25.115Z,5.57
2022-11-12T21:22:53.249Z,5.68
2022-11-12T21:25:22.276Z,5.64
2022-11-12T21:27:51.795Z,5.77
2022-11-12T21:30:21.558Z,5.77
2022-11-12T21:32:51.325Z,5.88
2022-11-12T21:35:19.289Z,5.76
2022-11-12T21:37:49.223Z,5.70
2022-11-12T21:40:17.993Z,5.79
2022-11-12T21:42:46.423Z,5.75
2022-11-12T21:45:14.368Z,5.63
2022-11-12T21:47:43.488Z,5.83
2022-11-12T21:50:11.550Z,5.86
2022-11-12T21:52:39.537Z,5.71
2022-11-12T21:55:09.877Z,5.49
2022-11-12T21:57:38.126Z,5.46
2022-11-12T22:00:39.683Z,5.40
2022-11-12T22:02:56.334Z,5.48
2022-11-12T22:05:24.377Z,5.42
2022-11-12T22:07:52.717Z,5.30
2022-11-12T22:10:22.202Z,5.32
2022-11-12T22:13:19.616Z,5.29
2022-11-12T22:15:38.197Z,4.87
2022-11-12T22:18:06.626Z,5.27
2022-11-12T22:20:34.643Z,5.40
2022-11-12T22:23:02.696Z,5.49
2022-11-12T22:25:32.095Z,5.22
2022-11-12T22:28:00.130Z,5.43
2022-11-12T22:30:28.111Z,5.64
2022-11-12T22:32:56.161Z,5.61
2022-11-12T22:35:24.176Z,5.62
2022-11-12T22:37:52.258Z,5.53
2022-11-12T22:40:20.260Z,5.51
2022-11-12T22:42:49.708Z,5.60
2022-11-12T22:45:18.229Z,5.72
2022-11-12T22:47:46.272Z,5.73
2022-11-12T22:50:14.323Z,5.58
2022-11-12T22:52:45.832Z,5.67
2022-11-12T22:55:17.964Z,5.71
2022-11-12T22:57:46.060Z,5.70
2022-11-12T23:00:17.074Z,5.67
2022-11-12T23:02:47.710Z,5.66
2022-11-12T23:05:16.064Z,5.49
2022-11-12T23:07:44.072Z,5.60
2022-11-12T23:10:12.036Z,5.69
2022-11-12T23:12:40.049Z,5.76
2022-11-12T23:15:09.147Z,5.78
2022-11-12T23:17:38.592Z,5.48
2022-11-12T23:20:07.603Z,5.40
2022-11-12T23:22:35.666Z,5.40
2022-11-12T23:25:03.635Z,5.44
2022-11-12T23:27:31.609Z,5.50
2022-11-12T23:29:59.632Z,5.58
2022-11-12T23:32:27.861Z,5.46
2022-11-12T23:34:57.351Z,5.46
2022-11-12T23:37:25.358Z,5.50
2022-11-12T23:39:53.342Z,5.44
2022-11-12T23:42:21.388Z,5.60
2022-11-12T23:44:49.457Z,5.65
2022-11-12T23:47:17.460Z,5.58
2022-11-12T23:49:45.498Z,5.60
2022-11-12T23:52:14.851Z,5.42
2022-11-12T23:54:42.858Z,5.66
2022-11-12T23:57:10.909Z,5.39
2022-11-12T23:59:40.084Z,5.67
